createdAt,value
2022-12-18T00:00:49.617Z,-1.68
2022-12-18T00:01:52.308Z,-1.72
2022-12-18T00:02:54.835Z,-1.77
2022-12-18T00:03:57.329Z,-1.92
2022-12-18T00:05:02.696Z,-1.91
2022-12-18T00:06:05.337Z,-1.87
2022-12-18T00:07:07.845Z,-2.01
2022-12-18T00:08:10.009Z,-1.97
2022-12-18T00:09:12.967Z,-1.94
2022-12-18T00:10:15.575Z,-1.91
2022-12-18T00:11:20.063Z,-1.79
2022-12-18T00:12:22.431Z,-1.71
2022-12-18T00:13:24.619Z,-1.63
2022-12-18T00:14:27.056Z,-1.58
2022-12-18T00:15:29.446Z,-1.64
2022-12-18T00:16:33.947Z,-1.57
2022-12-18T00:17:36.683Z,-1.38
2022-12-18T00:18:40.634Z,-1.35
2022-12-18T00:19:43.055Z,-1.42
2022-12-18T00:20:45.408Z,-1.46
2022-12-18T00:21:47.560Z,-1.54
2022-12-18T00:22:50.129Z,-1.66
2022-12-18T00:23:53.038Z,-1.87
2022-12-18T00:24:55.202Z,-2.10
2022-12-18T00:26:02.001Z,-2.26
2022-12-18T00:27:06.709Z,-2.27
2022-12-18T00:28:09.279Z,-2.19
2022-12-18T00:29:14.801Z,-2.21
2022-12-18T00:30:19.268Z,-2.28
2022-12-18T00:31:24.794Z,-2.43
2022-12-18T00:32:29.034Z,-2.44
2022-12-18T00:33:31.700Z,-2.51
2022-12-18T00:34:33.950Z,-2.55
2022-12-18T00:35:36.313Z,-2.55
2022-12-18T00:36:38.699Z,-2.76
2022-12-18T00:37:41.202Z,-2.71
2022-12-18T00:38:43.480Z,-2.74
2022-12-18T00:39:45.663Z,-2.70
2022-12-18T00:40:48.108Z,-2.49
2022-12-18T00:42:08.765Z,-2.36
2022-12-18T00:43:11.164Z,-2.42
2022-12-18T00:44:15.373Z,-2.45
2022-12-18T00:45:17.603Z,-2.69
2022-12-18T00:46:20.035Z,-2.73
2022-12-18T00:47:23.900Z,-2.80
2022-12-18T00:48:26.404Z,-2.70
2022-12-18T00:49:28.643Z,-2.66
2022-12-18T00:50:30.898Z,-2.61
2022-12-18T00:51:35.561Z,-2.66
2022-12-18T00:52:40.824Z,-2.69
2022-12-18T00:53:43.116Z,-2.82
2022-12-18T00:54:45.307Z,-2.94
2022-12-18T00:55:48.153Z,-2.94
2022-12-18T00:56:50.525Z,-2.68
2022-12-18T00:57:53.730Z,-2.65
2022-12-18T00:58:56.140Z,-2.69
2022-12-18T00:59:58.622Z,-2.74
2022-12-18T01:01:01.023Z,-2.78
2022-12-18T01:02:03.359Z,-2.78
2022-12-18T01:03:06.524Z,-2.73
2022-12-18T01:04:09.055Z,-2.58
2022-12-18T01:05:13.199Z,-2.43
2022-12-18T01:06:17.104Z,-2.42
2022-12-18T01:07:19.325Z,-2.53
2022-12-18T01:08:21.721Z,-2.49
2022-12-18T01:09:24.229Z,-2.51
2022-12-18T01:10:27.842Z,-2.45
2022-12-18T01:11:33.273Z,-2.44
2022-12-18T01:12:35.636Z,-2.58
2022-12-18T01:13:39.038Z,-2.75
2022-12-18T01:14:41.535Z,-2.61
2022-12-18T01:15:52.879Z,-2.56
2022-12-18T01:16:55.175Z,-2.70
2022-12-18T01:17:57.366Z,-2.65
2022-12-18T01:19:02.992Z,-2.58
2022-12-18T01:20:05.956Z,-2.54
2022-12-18T01:21:10.732Z,-2.57
2022-12-18T01:22:13.076Z,-2.72
2022-12-18T01:23:15.242Z,-2.67
2022-12-18T01:24:17.597Z,-2.72
2022-12-18T01:25:19.760Z,-2.85
2022-12-18T01:26:22.655Z,-2.78
2022-12-18T01:27:26.457Z,-2.71
2022-12-18T01:28:28.850Z,-2.62
2022-12-18T01:29:31.352Z,-2.61
2022-12-18T01:30:33.588Z,-2.51
2022-12-18T01:31:35.869Z,-2.47
2022-12-18T01:32:38.326Z,-2.47
2022-12-18T01:33:41.040Z,-2.64
2022-12-18T01:34:43.643Z,-2.64
2022-12-18T01:35:45.807Z,-2.58
2022-12-18T01:36:48.058Z,-2.72
2022-12-18T01:37:50.255Z,-2.74
2022-12-18T01:38:53.204Z,-2.64
2022-12-18T01:39:55.662Z,-2.57
2022-12-18T01:41:00.963Z,-2.72
2022-12-18T01:42:14.867Z,-2.84
2022-12-18T01:43:18.242Z,-2.95
2022-12-18T01:44:59.296Z,-2.82
2022-12-18T01:46:01.560Z,-2.72
2022-12-18T01:47:03.821Z,-2.84
2022-12-18T01:48:09.677Z,-3.00
2022-12-18T01:49:12.941Z,-3.18
2022-12-18T01:50:39.318Z,-3.15
2022-12-18T01:51:42.029Z,-3.04
2022-12-18T01:52:48.362Z,-3.06
2022-12-18T01:53:50.956Z,-2.95
2022-12-18T01:54:54.064Z,-3.12
2022-12-18T01:55:58.726Z,-3.07
2022-12-18T01:57:01.975Z,-2.83
2022-12-18T01:58:04.841Z,-2.70
2022-12-18T01:59:11.086Z,-2.77
2022-12-18T02:00:16.881Z,-2.76
2022-12-18T02:01:20.749Z,-2.61
2022-12-18T02:02:23.542Z,-2.55
2022-12-18T02:03:26.129Z,-2.49
2022-12-18T02:04:28.995Z,-2.67
2022-12-18T02:06:02.302Z,-2.59
2022-12-18T02:07:10.536Z,-2.54
2022-12-18T02:08:15.674Z,-2.68
2022-12-18T02:09:24.543Z,-2.72
2022-12-18T02:10:36.005Z,-2.83
2022-12-18T02:12:16.209Z,-2.89
2022-12-18T02:13:53.693Z,-2.74
2022-12-18T02:15:51.267Z,-2.62
2022-12-18T02:16:58.806Z,-2.52
2022-12-18T02:18:24.932Z,-2.43
2022-12-18T02:19:58.464Z,-2.39
2022-12-18T02:21:10.664Z,-2.40
2022-12-18T02:22:51.307Z,-2.32
2022-12-18T02:24:15.395Z,-2.24
2022-12-18T02:25:25.208Z,-2.27
2022-12-18T02:26:35.575Z,-2.28
2022-12-18T02:27:40.406Z,-2.24
2022-12-18T02:28:52.196Z,-2.19
2022-12-18T02:29:59.095Z,-2.37
2022-12-18T02:31:07.514Z,-2.36
2022-12-18T02:32:17.264Z,-2.20
2022-12-18T02:33:21.068Z,-2.10
2022-12-18T02:34:29.062Z,-2.25
2022-12-18T02:35:32.673Z,-2.35
2022-12-18T02:36:41.491Z,-2.47
2022-12-18T02:37:46.398Z,-2.52
2022-12-18T02:38:49.187Z,-2.69
2022-12-18T02:39:56.337Z,-2.76
2022-12-18T02:40:59.487Z,-2.94
2022-12-18T02:42:08.647Z,-3.03
2022-12-18T02:43:13.740Z,-3.10
2022-12-18T02:44:16.145Z,-3.02
2022-12-18T02:45:18.919Z,-2.81
2022-12-18T02:46:51.172Z,-2.82
2022-12-18T02:47:53.575Z,-2.76
2022-12-18T02:49:10.170Z,-2.77
2022-12-18T02:50:25.729Z,-2.72
2022-12-18T02:51:59.302Z,-2.61
2022-12-18T02:53:01.447Z,-2.49
2022-12-18T02:54:19.184Z,-2.48
2022-12-18T02:55:47.314Z,-2.59
2022-12-18T02:56:57.076Z,-2.61
2022-12-18T02:58:33.856Z,-2.72
2022-12-18T02:59:59.521Z,-2.69
2022-12-18T03:01:14.747Z,-2.64
2022-12-18T03:02:17.410Z,-2.82
2022-12-18T03:03:26.236Z,-2.97
2022-12-18T03:04:32.144Z,-2.84
2022-12-18T03:05:41.962Z,-2.78
2022-12-18T03:06:49.366Z,-2.73
2022-12-18T03:07:57.936Z,-2.70
2022-12-18T03:09:15.366Z,-2.70
2022-12-18T03:10:22.737Z,-2.77
2022-12-18T03:11:46.491Z,-2.89
2022-12-18T03:13:16.256Z,-2.89
2022-12-18T03:14:21.747Z,-2.99
2022-12-18T03:15:32.838Z,-2.84
2022-12-18T03:16:44.636Z,-2.72
2022-12-18T03:17:53.508Z,-2.67
2022-12-18T03:19:02.550Z,-2.60
2022-12-18T03:20:12.811Z,-2.53
2022-12-18T03:21:19.135Z,-2.44
2022-12-18T03:22:24.187Z,-2.56
2022-12-18T03:23:33.412Z,-2.62
2022-12-18T03:24:39.973Z,-2.58
2022-12-18T03:25:45.556Z,-2.57
2022-12-18T03:26:54.485Z,-2.56
2022-12-18T03:28:00.101Z,-2.84
2022-12-18T03:29:09.123Z,-2.62
2022-12-18T03:30:14.944Z,-2.57
2022-12-18T03:31:19.022Z,-2.40
2022-12-18T03:32:32.206Z,-2.35
2022-12-18T03:33:59.850Z,-2.32
2022-12-18T03:35:13.893Z,-2.25
2022-12-18T03:36:22.588Z,-2.32
2022-12-18T03:37:26.357Z,-2.35
2022-12-18T03:38:28.708Z,-2.64
2022-12-18T03:39:31.174Z,-2.75
2022-12-18T03:40:44.075Z,-2.70
2022-12-18T03:42:28.049Z,-2.57
2022-12-18T03:43:42.647Z,-2.54
2022-12-18T03:44:57.828Z,-2.71
2022-12-18T03:46:27.284Z,-2.81
2022-12-18T03:47:45.557Z,-2.84
2022-12-18T03:49:00.009Z,-2.94
2022-12-18T03:50:17.343Z,-3.08
2022-12-18T03:51:33.748Z,-3.02
2022-12-18T03:53:03.945Z,-3.04
2022-12-18T03:54:09.265Z,-2.89
2022-12-18T03:55:17.838Z,-2.88
2022-12-18T03:56:23.917Z,-2.85
2022-12-18T03:57:30.015Z,-2.94
2022-12-18T03:58:37.659Z,-2.92
2022-12-18T03:59:57.579Z,-2.84
2022-12-18T04:01:10.745Z,-2.76
2022-12-18T04:02:15.540Z,-2.71
2022-12-18T04:03:23.968Z,-2.56
2022-12-18T04:04:29.842Z,-2.49
2022-12-18T04:05:36.080Z,-2.45
2022-12-18T04:06:41.103Z,-2.41
2022-12-18T04:07:48.880Z,-2.50
2022-12-18T04:08:51.494Z,-2.48
2022-12-18T04:09:59.576Z,-2.51
2022-12-18T04:11:02.830Z,-2.53
2022-12-18T04:12:05.476Z,-2.56
2022-12-18T04:13:08.446Z,-2.70
2022-12-18T04:14:17.633Z,-2.67
2022-12-18T04:15:21.906Z,-2.79
2022-12-18T04:16:27.566Z,-2.92
2022-12-18T04:17:32.914Z,-3.11
2022-12-18T04:18:35.241Z,-3.11
2022-12-18T04:19:37.851Z,-3.12
2022-12-18T04:20:40.497Z,-3.07
2022-12-18T04:21:43.615Z,-3.12
2022-12-18T04:22:47.811Z,-3.42
2022-12-18T04:23:50.488Z,-3.41
2022-12-18T04:24:55.557Z,-3.31
2022-12-18T04:26:05.557Z,-3.08
2022-12-18T04:27:30.709Z,-3.21
2022-12-18T04:28:35.595Z,-3.31
2022-12-18T04:29:38.570Z,-3.49
2022-12-18T04:30:41.559Z,-3.71
2022-12-18T04:31:44.558Z,-3.68
2022-12-18T04:32:52.047Z,-3.63
2022-12-18T04:33:55.469Z,-3.73
2022-12-18T04:34:58.334Z,-3.65
2022-12-18T04:36:01.019Z,-3.53
2022-12-18T04:37:03.680Z,-3.58
2022-12-18T04:38:09.442Z,-3.58
2022-12-18T04:39:11.659Z,-3.42
2022-12-18T04:40:14.110Z,-3.47
2022-12-18T04:41:21.440Z,-3.33
2022-12-18T04:42:25.067Z,-3.40
2022-12-18T04:43:27.859Z,-3.43
2022-12-18T04:44:30.099Z,-3.42
2022-12-18T04:45:33.182Z,-3.35
2022-12-18T04:46:35.418Z,-3.27
2022-12-18T04:47:37.932Z,-3.35
2022-12-18T04:48:40.446Z,-3.32
2022-12-18T04:49:42.647Z,-3.12
2022-12-18T04:50:44.910Z,-3.43
2022-12-18T04:51:47.144Z,-3.64
2022-12-18T04:52:49.570Z,-3.56
2022-12-18T04:53:51.939Z,-3.67
2022-12-18T04:54:54.088Z,-3.57
2022-12-18T04:56:11.385Z,-3.38
2022-12-18T04:57:13.648Z,-3.17
2022-12-18T04:58:17.054Z,-3.10
2022-12-18T04:59:19.261Z,-3.10
2022-12-18T05:00:22.064Z,-3.03
2022-12-18T05:01:27.122Z,-2.97
2022-12-18T05:02:36.525Z,-2.98
2022-12-18T05:03:39.764Z,-2.99
2022-12-18T05:04:42.495Z,-3.03
2022-12-18T05:05:44.891Z,-2.91
2022-12-18T05:06:47.104Z,-2.90
2022-12-18T05:07:49.681Z,-2.85
2022-12-18T05:08:52.156Z,-2.76
2022-12-18T05:09:54.339Z,-2.76
2022-12-18T05:11:05.194Z,-2.60
2022-12-18T05:12:07.696Z,-2.44
2022-12-18T05:13:09.862Z,-2.42
2022-12-18T05:14:13.662Z,-2.35
2022-12-18T05:15:15.986Z,-2.36
2022-12-18T05:16:18.473Z,-2.52
2022-12-18T05:17:20.924Z,-2.52
2022-12-18T05:18:24.364Z,-2.72
2022-12-18T05:19:26.728Z,-2.77
2022-12-18T05:20:29.012Z,-2.76
2022-12-18T05:21:31.975Z,-2.73
2022-12-18T05:22:34.331Z,-2.74
2022-12-18T05:23:37.334Z,-2.94
2022-12-18T05:24:39.942Z,-2.88
2022-12-18T05:25:42.142Z,-2.79
2022-12-18T05:26:44.547Z,-2.88
2022-12-18T05:27:47.343Z,-2.84
2022-12-18T05:28:49.767Z,-2.77
2022-12-18T05:29:51.979Z,-2.79
2022-12-18T05:30:57.107Z,-2.73
2022-12-18T05:31:59.483Z,-2.64
2022-12-18T05:33:03.851Z,-2.75
2022-12-18T05:34:07.076Z,-2.80
2022-12-18T05:35:11.489Z,-2.77
2022-12-18T05:36:13.699Z,-2.89
2022-12-18T05:37:16.104Z,-2.81
2022-12-18T05:38:18.658Z,-2.80
2022-12-18T05:39:23.361Z,-2.90
2022-12-18T05:40:25.592Z,-2.93
2022-12-18T05:41:28.509Z,-2.76
2022-12-18T05:42:31.562Z,-2.82
2022-12-18T05:43:35.983Z,-2.93
2022-12-18T05:44:38.585Z,-2.83
2022-12-18T05:45:42.578Z,-2.92
2022-12-18T05:46:44.834Z,-2.90
2022-12-18T05:47:47.021Z,-2.90
2022-12-18T05:48:51.214Z,-2.75
2022-12-18T05:49:53.403Z,-2.69
2022-12-18T05:50:55.564Z,-2.73
2022-12-18T05:51:57.926Z,-2.79
2022-12-18T05:53:00.120Z,-2.93
2022-12-18T05:54:04.938Z,-2.90
2022-12-18T05:55:08.763Z,-3.02
2022-12-18T05:56:13.695Z,-2.90
2022-12-18T05:57:15.914Z,-2.85
2022-12-18T05:58:18.273Z,-2.99
2022-12-18T05:59:20.760Z,-3.09
2022-12-18T06:00:26.277Z,-3.26
2022-12-18T06:01:28.601Z,-3.07
2022-12-18T06:02:30.881Z,-3.00
2022-12-18T06:03:34.165Z,-3.15
2022-12-18T06:04:36.982Z,-3.01
2022-12-18T06:05:43.760Z,-2.91
2022-12-18T06:06:46.130Z,-2.85
2022-12-18T06:07:48.346Z,-2.83
2022-12-18T06:08:51.194Z,-2.86
2022-12-18T06:09:53.594Z,-2.81
2022-12-18T06:10:55.968Z,-2.87
2022-12-18T06:11:58.190Z,-2.79
2022-12-18T06:13:03.114Z,-2.74
2022-12-18T06:14:06.789Z,-2.76
2022-12-18T06:15:09.518Z,-2.67
2022-12-18T06:16:11.771Z,-2.84
2022-12-18T06:17:14.069Z,-2.84
2022-12-18T06:18:16.414Z,-2.79
2022-12-18T06:19:18.801Z,-2.81
2022-12-18T06:20:26.009Z,-2.71
2022-12-18T06:21:33.813Z,-2.61
2022-12-18T06:22:36.818Z,-2.70
2022-12-18T06:23:39.516Z,-2.57
2022-12-18T06:24:44.972Z,-2.69
2022-12-18T06:25:47.580Z,-2.82
2022-12-18T06:26:49.750Z,-2.68
2022-12-18T06:27:51.937Z,-2.86
2022-12-18T06:28:54.364Z,-2.82
2022-12-18T06:29:56.580Z,-2.71
2022-12-18T06:30:58.733Z,-2.70
2022-12-18T06:32:03.260Z,-2.68
2022-12-18T06:33:05.567Z,-2.62
2022-12-18T06:34:07.771Z,-2.53
2022-12-18T06:35:10.365Z,-2.61
2022-12-18T06:36:14.239Z,-2.47
2022-12-18T06:37:16.595Z,-2.50
2022-12-18T06:38:18.774Z,-2.75
2022-12-18T06:39:25.087Z,-2.73
2022-12-18T06:40:27.629Z,-2.86
2022-12-18T06:41:29.857Z,-2.83
2022-12-18T06:42:32.969Z,-2.87
2022-12-18T06:43:35.368Z,-2.81
2022-12-18T06:44:37.649Z,-2.99
2022-12-18T06:45:40.425Z,-3.19
2022-12-18T06:46:45.507Z,-3.16
2022-12-18T06:47:47.718Z,-3.38
2022-12-18T06:48:51.468Z,-3.50
2022-12-18T06:49:53.636Z,-3.46
2022-12-18T06:50:56.124Z,-3.35
2022-12-18T06:51:58.342Z,-3.31
2022-12-18T06:53:00.710Z,-3.01
2022-12-18T06:54:06.181Z,-3.07
2022-12-18T06:55:09.293Z,-3.02
2022-12-18T06:56:11.838Z,-3.21
2022-12-18T06:57:14.006Z,-3.26
2022-12-18T06:58:16.492Z,-2.93
2022-12-18T06:59:18.893Z,-2.86
2022-12-18T07:00:22.797Z,-2.81
2022-12-18T07:01:25.544Z,-2.74
2022-12-18T07:02:27.978Z,-2.70
2022-12-18T07:03:30.549Z,-2.69
2022-12-18T07:04:33.164Z,-2.82
2022-12-18T07:05:35.597Z,-2.78
2022-12-18T07:06:37.813Z,-2.72
2022-12-18T07:07:40.269Z,-2.61
2022-12-18T07:08:44.190Z,-2.59
2022-12-18T07:09:46.651Z,-2.69
2022-12-18T07:10:55.775Z,-2.72
2022-12-18T07:11:58.459Z,-3.01
2022-12-18T07:13:03.922Z,-2.95
2022-12-18T07:14:06.116Z,-3.08
2022-12-18T07:15:08.923Z,-3.27
2022-12-18T07:16:24.647Z,-3.18
2022-12-18T07:17:27.742Z,-3.36
2022-12-18T07:18:30.237Z,-3.21
2022-12-18T07:19:32.526Z,-3.02
2022-12-18T07:20:34.913Z,-3.07
2022-12-18T07:21:37.300Z,-2.84
2022-12-18T07:22:39.547Z,-2.79
2022-12-18T07:23:43.695Z,-2.77
2022-12-18T07:24:47.066Z,-2.86
2022-12-18T07:25:52.539Z,-2.85
2022-12-18T07:26:54.929Z,-2.86
2022-12-18T07:27:57.098Z,-2.76
2022-12-18T07:28:59.581Z,-2.78
2022-12-18T07:30:01.944Z,-2.75
2022-12-18T07:31:12.939Z,-2.76
2022-12-18T07:32:15.408Z,-2.70
2022-12-18T07:33:17.624Z,-2.79
2022-12-18T07:34:19.827Z,-2.69
2022-12-18T07:35:25.669Z,-2.78
2022-12-18T07:36:28.351Z,-2.71
2022-12-18T07:37:30.542Z,-2.77
2022-12-18T07:38:33.922Z,-2.80
2022-12-18T07:39:36.342Z,-2.75
2022-12-18T07:40:38.537Z,-2.67
2022-12-18T07:41:47.431Z,-2.65
2022-12-18T07:42:51.764Z,-2.61
2022-12-18T07:43:53.946Z,-2.51
2022-12-18T07:44:56.305Z,-2.42
2022-12-18T07:45:58.827Z,-2.47
2022-12-18T07:47:01.507Z,-2.57
2022-12-18T07:48:03.751Z,-2.66
2022-12-18T07:49:05.943Z,-2.98
2022-12-18T07:50:08.803Z,-2.91
2022-12-18T07:51:13.690Z,-3.05
2022-12-18T07:52:16.197Z,-3.53
2022-12-18T07:53:18.418Z,-3.72
2022-12-18T07:54:20.693Z,-3.67
2022-12-18T07:55:25.663Z,-3.47
2022-12-18T07:56:30.058Z,-3.51
2022-12-18T07:58:55.580Z,-3.09
2022-12-18T07:59:57.829Z,-3.31
2022-12-18T08:01:12.158Z,-3.39
2022-12-18T08:02:14.645Z,-3.43
2022-12-18T08:03:17.089Z,-3.34
2022-12-18T08:04:19.664Z,-3.35
2022-12-18T08:05:24.877Z,-3.37
2022-12-18T08:06:27.284Z,-3.61
2022-12-18T08:07:29.885Z,-3.59
2022-12-18T08:08:32.313Z,-3.76
2022-12-18T08:09:34.484Z,-3.65
2022-12-18T08:10:39.177Z,-3.63
2022-12-18T08:11:43.400Z,-3.62
2022-12-18T08:12:45.823Z,-3.63
2022-12-18T08:13:48.032Z,-3.45
2022-12-18T08:14:50.374Z,-3.41
2022-12-18T08:16:03.297Z,-3.24
2022-12-18T08:17:05.951Z,-3.21
2022-12-18T08:18:12.707Z,-3.25
2022-12-18T08:19:16.510Z,-3.27
2022-12-18T08:20:19.341Z,-3.28
2022-12-18T08:21:25.698Z,-3.34
2022-12-18T08:22:28.099Z,-3.20
2022-12-18T08:23:30.292Z,-3.32
2022-12-18T08:24:32.687Z,-3.21
2022-12-18T08:25:35.101Z,-3.08
2022-12-18T08:26:39.585Z,-3.13
2022-12-18T08:27:44.257Z,-3.24
2022-12-18T08:28:46.476Z,-3.05
2022-12-18T08:29:48.753Z,-3.11
2022-12-18T08:30:53.296Z,-3.05
2022-12-18T08:31:55.578Z,-3.10
2022-12-18T08:32:58.273Z,-2.93
2022-12-18T08:34:00.555Z,-2.92
2022-12-18T08:35:05.645Z,-3.32
2022-12-18T08:36:10.761Z,-3.30
2022-12-18T08:37:13.001Z,-3.64
2022-12-18T08:38:15.415Z,-3.72
2022-12-18T08:39:17.672Z,-3.94
2022-12-18T08:40:20.083Z,-3.85
2022-12-18T08:41:25.249Z,-3.77
2022-12-18T08:42:46.311Z,-3.76
2022-12-18T08:44:06.845Z,-3.76
2022-12-18T08:45:09.800Z,-3.54
2022-12-18T08:46:13.024Z,-3.38
2022-12-18T08:47:18.399Z,-3.34
2022-12-18T08:48:22.402Z,-3.31
2022-12-18T08:49:24.686Z,-3.32
2022-12-18T08:50:27.132Z,-3.32
2022-12-18T08:51:29.365Z,-3.53
2022-12-18T08:52:33.312Z,-3.33
2022-12-18T08:53:36.107Z,-3.14
2022-12-18T08:54:38.342Z,-3.02
2022-12-18T08:55:41.451Z,-2.93
2022-12-18T08:56:44.910Z,-2.86
2022-12-18T08:57:50.455Z,-3.30
2022-12-18T08:58:56.056Z,-3.53
2022-12-18T08:59:58.195Z,-3.73
2022-12-18T09:01:03.737Z,-3.66
2022-12-18T09:02:06.116Z,-3.73
2022-12-18T09:03:16.353Z,-3.89
2022-12-18T09:04:19.041Z,-3.85
2022-12-18T09:05:23.274Z,-3.88
2022-12-18T09:06:26.556Z,-3.78
2022-12-18T09:07:28.719Z,-3.78
2022-12-18T09:08:31.156Z,-3.82
2022-12-18T09:09:37.092Z,-3.72
2022-12-18T09:10:46.633Z,-3.58
2022-12-18T09:11:48.851Z,-3.54
2022-12-18T09:12:51.279Z,-3.75
2022-12-18T09:13:54.783Z,-3.91
2022-12-18T09:14:57.850Z,-3.77
2022-12-18T09:16:00.022Z,-3.65
2022-12-18T09:17:05.096Z,-3.51
2022-12-18T09:18:08.150Z,-3.33
2022-12-18T09:19:11.117Z,-3.23
2022-12-18T09:20:13.357Z,-3.04
2022-12-18T09:21:18.950Z,-3.03
2022-12-18T09:22:22.479Z,-3.00
2022-12-18T09:23:24.906Z,-3.00
2022-12-18T09:24:27.290Z,-2.93
2022-12-18T09:25:34.137Z,-2.80
2022-12-18T09:26:36.794Z,-2.73
2022-12-18T09:27:39.002Z,-2.61
2022-12-18T09:28:44.005Z,-2.71
2022-12-18T09:29:46.502Z,-3.01
2022-12-18T09:30:50.612Z,-2.88
2022-12-18T09:31:52.879Z,-2.78
2022-12-18T09:32:55.334Z,-2.78
2022-12-18T09:33:57.994Z,-2.65
2022-12-18T09:35:00.833Z,-2.52
2022-12-18T09:36:09.278Z,-2.50
2022-12-18T09:37:11.516Z,-2.50
2022-12-18T09:38:20.000Z,-2.38
2022-12-18T09:39:25.142Z,-2.44
2022-12-18T09:40:33.809Z,-2.50
2022-12-18T09:41:45.158Z,-2.57
2022-12-18T09:42:54.348Z,-2.50
2022-12-18T09:44:02.043Z,-2.49
2022-12-18T09:45:05.085Z,-2.50
2022-12-18T09:46:17.214Z,-2.45
2022-12-18T09:47:38.683Z,-2.38
2022-12-18T09:48:46.929Z,-2.56
2022-12-18T09:49:53.966Z,-2.53
2022-12-18T09:51:04.038Z,-2.53
2022-12-18T09:52:15.498Z,-2.59
2022-12-18T09:53:23.698Z,-2.75
2022-12-18T09:54:40.397Z,-2.71
2022-12-18T09:55:47.887Z,-2.64
2022-12-18T09:56:50.281Z,-2.63
2022-12-18T09:57:57.972Z,-2.54
2022-12-18T09:59:01.934Z,-2.49
2022-12-18T10:00:19.516Z,-2.41
2022-12-18T10:01:34.035Z,-2.34
2022-12-18T10:02:41.799Z,-2.31
2022-12-18T10:03:44.406Z,-2.26
2022-12-18T10:05:07.882Z,-2.30
2022-12-18T10:06:26.237Z,-2.67
2022-12-18T10:07:52.663Z,-2.82
2022-12-18T10:09:21.657Z,-3.10
2022-12-18T10:10:29.879Z,-3.20
2022-12-18T10:11:41.907Z,-3.20
2022-12-18T10:12:49.342Z,-3.12
2022-12-18T10:14:05.594Z,-3.04
2022-12-18T10:15:38.642Z,-3.01
2022-12-18T10:16:56.286Z,-2.98
2022-12-18T10:18:22.168Z,-2.89
2022-12-18T10:20:02.726Z,-2.78
2022-12-18T10:21:12.418Z,-2.76
2022-12-18T10:22:28.454Z,-2.76
2022-12-18T10:23:48.207Z,-2.83
2022-12-18T10:25:08.028Z,-2.90
2022-12-18T10:26:13.563Z,-3.06
2022-12-18T10:27:20.459Z,-3.21
2022-12-18T10:28:24.388Z,-3.35
2022-12-18T10:29:27.184Z,-3.36
2022-12-18T10:30:29.556Z,-3.31
2022-12-18T10:31:31.799Z,-3.30
2022-12-18T10:32:34.266Z,-3.47
2022-12-18T10:33:36.578Z,-3.47
2022-12-18T10:34:38.787Z,-3.37
2022-12-18T10:35:43.334Z,-3.15
2022-12-18T10:36:45.616Z,-3.15
2022-12-18T10:38:05.258Z,-3.24
2022-12-18T10:39:24.918Z,-3.46
2022-12-18T10:40:27.429Z,-3.47
2022-12-18T10:41:31.851Z,-3.47
2022-12-18T10:42:34.578Z,-3.47
2022-12-18T10:43:39.565Z,-3.53
2022-12-18T10:44:41.952Z,-3.60
2022-12-18T10:46:03.912Z,-3.50
2022-12-18T10:47:13.644Z,-3.14
2022-12-18T10:48:22.368Z,-3.14
2022-12-18T10:49:28.822Z,-2.94
2022-12-18T10:51:09.178Z,-2.78
2022-12-18T10:52:17.032Z,-3.01
2022-12-18T10:53:26.292Z,-3.06
2022-12-18T10:54:30.879Z,-2.97
2022-12-18T10:55:36.578Z,-3.06
2022-12-18T10:56:39.224Z,-3.18
2022-12-18T10:57:42.634Z,-3.04
2022-12-18T10:58:57.205Z,-3.09
2022-12-18T11:00:02.290Z,-2.93
2022-12-18T11:01:21.063Z,-2.87
2022-12-18T11:02:35.775Z,-2.68
2022-12-18T11:03:47.041Z,-2.62
2022-12-18T11:04:53.586Z,-2.69
2022-12-18T11:06:19.083Z,-2.77
2022-12-18T11:07:21.571Z,-2.92
2022-12-18T11:08:24.319Z,-3.20
2022-12-18T11:09:30.187Z,-3.11
2022-12-18T11:10:36.220Z,-3.11
2022-12-18T11:11:38.434Z,-3.06
2022-12-18T11:12:40.873Z,-3.24
2022-12-18T11:14:12.739Z,-3.31
2022-12-18T11:15:21.261Z,-3.49
2022-12-18T11:16:26.525Z,-3.34
2022-12-18T11:17:35.764Z,-3.17
2022-12-18T11:18:38.428Z,-3.21
2022-12-18T11:19:44.982Z,-3.48
2022-12-18T11:21:15.819Z,-3.43
2022-12-18T11:22:29.133Z,-3.43
2022-12-18T11:23:32.680Z,-3.34
2022-12-18T11:24:36.848Z,-3.38
2022-12-18T11:25:39.454Z,-3.17
2022-12-18T11:26:44.289Z,-3.19
2022-12-18T11:27:56.383Z,-3.06
2022-12-18T11:29:18.257Z,-3.53
2022-12-18T11:30:28.971Z,-3.82
2022-12-18T11:31:34.393Z,-3.71
2022-12-18T11:32:47.550Z,-3.75
2022-12-18T11:34:19.679Z,-3.87
2022-12-18T11:35:24.389Z,-3.88
2022-12-18T11:36:32.229Z,-3.68
2022-12-18T11:37:35.769Z,-3.64
2022-12-18T11:38:43.824Z,-3.42
2022-12-18T11:39:52.665Z,-3.42
2022-12-18T11:41:16.966Z,-3.36
2022-12-18T11:42:29.134Z,-3.56
2022-12-18T11:43:59.777Z,-3.28
2022-12-18T11:45:14.194Z,-3.10
2022-12-18T11:46:25.249Z,-3.04
2022-12-18T11:47:41.744Z,-2.84
2022-12-18T11:48:55.293Z,-2.80
2022-12-18T11:50:01.973Z,-3.04
2022-12-18T11:51:09.520Z,-3.33
2022-12-18T11:52:25.370Z,-3.41
2022-12-18T11:53:28.659Z,-3.72
2022-12-18T11:54:30.942Z,-3.42
2022-12-18T11:55:50.381Z,-3.51
2022-12-18T11:56:59.577Z,-3.68
2022-12-18T11:58:22.510Z,-3.50
2022-12-18T11:59:49.213Z,-3.64
2022-12-18T12:01:07.823Z,-3.67
2022-12-18T12:02:30.335Z,-3.66
2022-12-18T12:03:53.006Z,-3.73
2022-12-18T12:05:13.433Z,-3.86
2022-12-18T12:06:37.318Z,-3.78
2022-12-18T12:07:48.409Z,-4.00
2022-12-18T12:09:12.687Z,-4.02
2022-12-18T12:10:30.051Z,-3.67
2022-12-18T12:12:09.896Z,-3.70
2022-12-18T12:13:17.720Z,-3.70
2022-12-18T12:14:42.559Z,-3.66
2022-12-18T12:16:02.476Z,-3.66
2022-12-18T12:17:29.284Z,-3.59
2022-12-18T12:18:50.940Z,-3.54
2022-12-18T12:20:19.248Z,-3.56
2022-12-18T12:21:44.187Z,-3.69
2022-12-18T12:23:28.101Z,-3.50
2022-12-18T12:24:36.489Z,-3.40
2022-12-18T12:26:05.851Z,-3.34
2022-12-18T12:27:27.834Z,-3.43
2022-12-18T12:28:33.517Z,-3.50
2022-12-18T12:29:50.274Z,-3.57
2022-12-18T12:31:19.459Z,-3.34
2022-12-18T12:32:46.761Z,-3.12
2022-12-18T12:34:31.212Z,-3.19
2022-12-18T12:35:59.166Z,-3.16
2022-12-18T12:45:07.832Z,-2.96
2022-12-18T12:46:14.343Z,-3.03
2022-12-18T12:47:32.513Z,-3.02
2022-12-18T12:48:55.523Z,-2.83
2022-12-18T12:50:02.392Z,-2.61
2022-12-18T12:51:30.964Z,-2.33
2022-12-18T12:52:43.805Z,-2.38
2022-12-18T12:53:47.451Z,-2.26
2022-12-18T12:54:50.780Z,-2.24
2022-12-18T12:55:54.371Z,-2.26
2022-12-18T12:56:59.423Z,-2.15
2022-12-18T12:58:22.782Z,-2.42
2022-12-18T12:59:37.193Z,-2.24
2022-12-18T13:00:53.970Z,-2.15
2022-12-18T13:02:31.117Z,-2.15
2022-12-18T13:03:51.436Z,-2.34
2022-12-18T13:05:01.973Z,-2.43
2022-12-18T13:06:13.825Z,-2.44
2022-12-18T13:07:47.373Z,-2.65
2022-12-18T13:08:56.211Z,-2.79
2022-12-18T13:10:17.713Z,-2.57
2022-12-18T13:12:00.523Z,-2.48
2022-12-18T13:13:02.705Z,-2.71
2022-12-18T13:14:05.764Z,-2.58
2022-12-18T13:15:23.104Z,-2.75
2022-12-18T13:16:28.264Z,-2.85
2022-12-18T13:17:32.084Z,-2.78
2022-12-18T13:18:35.139Z,-2.73
2022-12-18T13:19:37.600Z,-2.72
2022-12-18T13:20:55.153Z,-2.63
2022-12-18T13:22:00.784Z,-2.61
2022-12-18T13:23:26.816Z,-2.43
2022-12-18T13:24:32.208Z,-2.46
2022-12-18T13:25:37.591Z,-2.59
2022-12-18T13:26:40.275Z,-2.83
2022-12-18T13:27:46.259Z,-2.89
2022-12-18T13:28:49.339Z,-2.66
2022-12-18T13:29:52.832Z,-2.46
2022-12-18T13:30:58.397Z,-2.36
2022-12-18T13:32:02.060Z,-2.46
2022-12-18T13:33:22.952Z,-2.32
2022-12-18T13:34:27.483Z,-2.24
2022-12-18T13:35:30.908Z,-2.33
2022-12-18T13:36:34.511Z,-2.56
2022-12-18T13:37:52.738Z,-2.47
2022-12-18T13:39:26.546Z,-2.45
2022-12-18T13:40:42.125Z,-2.51
2022-12-18T13:41:48.899Z,-2.44
2022-12-18T13:43:09.788Z,-2.44
2022-12-18T13:44:35.968Z,-2.52
2022-12-18T13:46:03.850Z,-2.49
2022-12-18T13:47:34.721Z,-2.85
2022-12-18T13:48:39.466Z,-2.80
2022-12-18T13:49:45.002Z,-2.56
2022-12-18T13:50:53.970Z,-2.32
2022-12-18T13:51:57.262Z,-2.15
2022-12-18T13:53:00.419Z,-2.10
2022-12-18T13:54:21.089Z,-1.96
2022-12-18T13:55:23.596Z,-1.91
2022-12-18T13:56:30.337Z,-2.09
2022-12-18T13:57:35.423Z,-2.03
2022-12-18T13:58:38.033Z,-2.35
2022-12-18T13:59:40.991Z,-2.51
2022-12-18T14:00:44.278Z,-2.47
2022-12-18T14:01:58.625Z,-2.37
2022-12-18T14:03:01.419Z,-2.26
2022-12-18T14:04:12.183Z,-2.23
2022-12-18T14:05:31.008Z,-2.15
2022-12-18T14:06:33.475Z,-2.06
2022-12-18T14:07:50.361Z,-2.22
2022-12-18T14:08:53.899Z,-2.18
2022-12-18T14:10:12.251Z,-2.32
2022-12-18T14:11:26.661Z,-2.12
2022-12-18T14:12:51.471Z,-2.34
2022-12-18T14:13:53.981Z,-2.25
2022-12-18T14:14:56.905Z,-2.30
2022-12-18T14:16:03.103Z,-2.11
2022-12-18T14:17:11.461Z,-2.16
2022-12-18T14:18:51.680Z,-2.08
2022-12-18T14:19:54.036Z,-2.01
2022-12-18T14:20:58.875Z,-2.05
2022-12-18T14:22:01.568Z,-1.99
2022-12-18T14:23:03.849Z,-1.99
2022-12-18T14:24:15.595Z,-1.98
2022-12-18T14:25:24.257Z,-1.90
2022-12-18T14:26:31.691Z,-2.24
2022-12-18T14:27:39.318Z,-2.16
2022-12-18T14:28:45.218Z,-2.14
2022-12-18T14:29:47.434Z,-2.15
2022-12-18T14:30:50.776Z,-2.09
2022-12-18T14:32:15.025Z,-2.11
2022-12-18T14:33:22.521Z,-2.22
2022-12-18T14:34:27.802Z,-2.56
2022-12-18T14:35:29.971Z,-2.61
2022-12-18T14:36:32.581Z,-2.67
2022-12-18T14:37:34.997Z,-2.49
2022-12-18T14:38:39.898Z,-2.41
2022-12-18T14:39:53.693Z,-2.44
2022-12-18T14:41:05.225Z,-2.55
2022-12-18T14:42:11.722Z,-2.58